createdAt,value
2022-09-14T00:01:48.847Z,99.90
2022-09-14T00:04:18.407Z,99.90
2022-09-14T00:06:46.103Z,99.90
2022-09-14T00:09:20.334Z,99.90
2022-09-14T00:11:47.606Z,99.90
2022-09-14T00:14:15.142Z,99.90
2022-09-14T00:16:42.939Z,99.90
2022-09-14T00:19:36.419Z,99.90
2022-09-14T00:22:03.872Z,99.90
2022-09-14T00:24:31.232Z,99.90
2022-09-14T00:26:58.275Z,99.90
2022-09-14T00:29:25.578Z,99.90
2022-09-14T00:31:52.672Z,99.90
2022-09-14T00:34:19.991Z,99.90
2022-09-14T00:36:48.969Z,99.90
2022-09-14T00:39:18.359Z,99.90
2022-09-14T00:41:47.172Z,99.90
2022-09-14T00:44:13.922Z,99.90
2022-09-14T00:46:46.779Z,99.90
2022-09-14T00:49:22.736Z,99.90
2022-09-14T00:52:01.369Z,99.90
2022-09-14T00:54:28.205Z,99.90
2022-09-14T00:56:55.932Z,99.90
2022-09-14T00:59:27.607Z,99.90
2022-09-14T01:01:54.538Z,99.90
2022-09-14T01:04:22.300Z,99.90
2022-09-14T01:07:18.219Z,99.90
2022-09-14T01:10:04.467Z,99.90
2022-09-14T01:12:49.088Z,99.90
2022-09-14T01:15:27.774Z,99.90
2022-09-14T01:17:57.578Z,99.90
2022-09-14T01:20:31.312Z,99.90
2022-09-14T01:23:36.554Z,99.90
2022-09-14T01:26:03.298Z,99.90
2022-09-14T01:28:41.315Z,99.90
2022-09-14T01:31:18.597Z,99.90
2022-09-14T01:34:14.734Z,99.90
2022-09-14T01:36:46.447Z,99.90
2022-09-14T01:39:16.409Z,99.90
2022-09-14T01:41:45.678Z,99.90
2022-09-14T01:44:25.455Z,99.90
2022-09-14T01:46:56.907Z,99.90
2022-09-14T01:49:41.846Z,99.90
2022-09-14T01:52:16.800Z,99.90
2022-09-14T01:54:58.723Z,99.90
2022-09-14T01:57:34.514Z,99.90
2022-09-14T02:00:10.103Z,99.90
2022-09-14T02:02:44.787Z,99.90
2022-09-14T02:05:17.255Z,99.90
2022-09-14T02:07:44.292Z,99.90
2022-09-14T02:10:15.535Z,99.90
2022-09-14T02:12:42.976Z,99.90
2022-09-14T02:15:12.819Z,99.90
2022-09-14T02:17:40.164Z,99.90
2022-09-14T02:20:26.563Z,99.90
2022-09-14T02:22:53.648Z,99.90
2022-09-14T02:25:21.321Z,99.90
2022-09-14T02:27:48.576Z,99.90
2022-09-14T02:30:17.130Z,99.90
2022-09-14T02:33:08.420Z,99.90
2022-09-14T02:35:56.599Z,99.90
2022-09-14T02:38:58.703Z,99.90
2022-09-14T02:41:39.720Z,99.90
2022-09-14T02:44:37.243Z,99.90
2022-09-14T02:47:14.294Z,99.90
2022-09-14T02:50:13.059Z,99.90
2022-09-14T02:53:12.319Z,99.90
2022-09-14T02:55:46.643Z,99.90
2022-09-14T02:58:14.627Z,99.90
2022-09-14T03:00:45.299Z,99.90
2022-09-14T03:03:15.169Z,99.90
2022-09-14T03:05:42.612Z,99.90
2022-09-14T03:08:12.791Z,99.90
2022-09-14T03:10:43.407Z,99.90
2022-09-14T03:13:10.780Z,99.90
2022-09-14T03:15:37.739Z,99.90
2022-09-14T03:18:09.140Z,99.90
2022-09-14T03:20:40.145Z,99.90
2022-09-14T03:23:09.113Z,99.90
2022-09-14T03:25:41.384Z,99.90
2022-09-14T03:28:09.154Z,99.90
2022-09-14T03:30:36.344Z,99.90
2022-09-14T03:33:03.831Z,99.90
2022-09-14T03:35:31.646Z,99.90
2022-09-14T03:37:59.819Z,99.90
2022-09-14T03:40:27.670Z,99.90
2022-09-14T03:42:54.892Z,99.90
2022-09-14T03:45:22.076Z,99.90
2022-09-14T03:47:49.695Z,99.90
2022-09-14T03:50:18.195Z,99.90
2022-09-14T03:52:45.169Z,99.90
2022-09-14T03:55:12.083Z,99.90
2022-09-14T03:57:39.536Z,99.90
2022-09-14T04:00:08.543Z,99.90
2022-09-14T04:02:38.997Z,99.90
2022-09-14T04:05:07.163Z,99.90
2022-09-14T04:07:34.190Z,99.90
2022-09-14T04:10:01.279Z,99.90
2022-09-14T04:12:28.295Z,99.90
2022-09-14T04:14:55.079Z,99.90
2022-09-14T04:17:25.246Z,99.90
2022-09-14T04:19:52.300Z,99.90
2022-09-14T04:22:19.174Z,99.90
2022-09-14T04:24:46.136Z,99.90
2022-09-14T04:27:13.288Z,99.90
2022-09-14T04:30:02.098Z,99.90
2022-09-14T04:32:34.045Z,99.90
2022-09-14T04:35:01.375Z,99.90
2022-09-14T04:37:31.788Z,99.90
2022-09-14T04:39:58.885Z,99.90
2022-09-14T04:42:25.805Z,99.90
2022-09-14T04:44:52.705Z,99.90
2022-09-14T04:47:19.525Z,99.90
2022-09-14T04:49:47.588Z,99.90
2022-09-14T04:52:14.386Z,99.90
2022-09-14T04:54:41.192Z,99.90
2022-09-14T04:57:08.013Z,99.90
2022-09-14T04:59:35.032Z,99.90
2022-09-14T05:02:02.109Z,99.90
2022-09-14T05:04:28.960Z,99.90
2022-09-14T05:06:56.362Z,99.90
2022-09-14T05:09:23.275Z,99.90
2022-09-14T05:11:51.964Z,99.90
2022-09-14T05:14:18.778Z,99.90
2022-09-14T05:16:45.707Z,99.90
2022-09-14T05:19:17.999Z,99.90
2022-09-14T05:21:45.463Z,99.90
2022-09-14T05:24:14.885Z,99.90
2022-09-14T05:26:43.517Z,99.90
2022-09-14T05:29:16.340Z,99.90
2022-09-14T05:31:43.652Z,99.90
2022-09-14T05:34:11.276Z,99.90
2022-09-14T05:36:39.394Z,99.90
2022-09-14T05:39:08.361Z,99.90
2022-09-14T05:41:35.236Z,99.90
2022-09-14T05:44:02.180Z,99.90
2022-09-14T05:46:29.081Z,99.90
2022-09-14T05:48:58.012Z,99.90
2022-09-14T05:51:26.594Z,99.90
2022-09-14T05:53:55.536Z,99.90
2022-09-14T05:56:24.596Z,99.90
2022-09-14T05:58:52.923Z,99.90
2022-09-14T06:01:25.735Z,99.90
2022-09-14T06:03:57.544Z,99.90
2022-09-14T06:06:24.566Z,99.90
2022-09-14T06:08:54.162Z,99.90
2022-09-14T06:11:23.887Z,99.90
2022-09-14T06:13:51.269Z,99.90
2022-09-14T06:16:20.769Z,99.90
2022-09-14T06:18:50.305Z,99.90
2022-09-14T06:21:19.534Z,99.90
2022-09-14T06:23:47.565Z,99.90
2022-09-14T06:26:14.807Z,99.90
2022-09-14T06:29:01.856Z,99.90
2022-09-14T06:31:28.971Z,99.90
2022-09-14T06:33:55.808Z,99.90
2022-09-14T06:36:27.390Z,99.90
2022-09-14T06:38:59.010Z,99.90
2022-09-14T06:41:30.371Z,99.90
2022-09-14T06:43:58.955Z,99.90
2022-09-14T06:46:28.619Z,99.90
2022-09-14T06:49:02.152Z,99.90
2022-09-14T06:51:36.183Z,99.90
2022-09-14T06:54:03.431Z,99.90
2022-09-14T06:56:38.867Z,99.90
2022-09-14T06:59:09.639Z,99.90
2022-09-14T07:01:37.043Z,99.90
2022-09-14T07:04:04.418Z,99.90
2022-09-14T07:06:39.031Z,99.90
2022-09-14T07:09:07.289Z,99.90
2022-09-14T07:11:34.687Z,99.90
2022-09-14T07:14:02.185Z,99.90
2022-09-14T07:16:31.197Z,99.90
2022-09-14T07:19:01.766Z,99.90
2022-09-14T07:21:29.939Z,99.90
2022-09-14T07:23:56.977Z,99.90
2022-09-14T07:26:31.323Z,99.90
2022-09-14T07:29:05.279Z,99.90
2022-09-14T07:31:40.855Z,99.90
2022-09-14T07:34:08.147Z,99.90
2022-09-14T07:36:36.418Z,99.90
2022-09-14T07:39:08.558Z,99.90
2022-09-14T07:41:36.357Z,99.90
2022-09-14T07:44:06.331Z,99.90
2022-09-14T07:46:39.103Z,99.90
2022-09-14T07:49:07.408Z,99.90
2022-09-14T07:51:36.886Z,99.90
2022-09-14T07:54:06.524Z,99.90
2022-09-14T07:56:34.995Z,99.90
2022-09-14T07:59:30.873Z,99.90
2022-09-14T08:01:51.513Z,99.90
2022-09-14T08:04:18.348Z,99.90
2022-09-14T08:06:45.125Z,99.90
2022-09-14T08:09:12.451Z,99.90
2022-09-14T08:11:39.383Z,99.90
2022-09-14T08:14:12.007Z,99.90
2022-09-14T08:16:40.529Z,99.90
2022-09-14T08:19:13.318Z,99.90
2022-09-14T08:21:45.633Z,99.90
2022-09-14T08:24:14.909Z,99.90
2022-09-14T08:26:41.759Z,99.90
2022-09-14T08:29:08.938Z,99.90
2022-09-14T08:31:39.365Z,99.90
2022-09-14T08:34:06.988Z,99.90
2022-09-14T08:36:36.554Z,99.90
2022-09-14T08:39:06.357Z,99.90
2022-09-14T08:41:47.551Z,99.90
2022-09-14T08:44:23.647Z,99.90
2022-09-14T08:47:13.804Z,99.90
2022-09-14T08:50:03.032Z,99.90
2022-09-14T08:52:48.091Z,99.90
2022-09-14T08:55:45.172Z,99.90
2022-09-14T08:58:48.181Z,99.90
2022-09-14T09:01:24.563Z,99.90
2022-09-14T09:04:17.401Z,99.90
2022-09-14T09:07:07.615Z,99.90
2022-09-14T09:09:46.083Z,99.90
2022-09-14T09:12:21.863Z,99.90
2022-09-14T09:15:21.308Z,99.90
2022-09-14T09:17:54.379Z,99.90
2022-09-14T09:20:34.344Z,99.90
2022-09-14T09:23:29.020Z,99.90
2022-09-14T09:26:00.584Z,99.90
2022-09-14T09:28:29.769Z,99.90
2022-09-14T09:31:04.859Z,99.90
2022-09-14T09:33:51.887Z,99.90
2022-09-14T09:36:22.439Z,99.90
2022-09-14T09:38:50.312Z,99.90
2022-09-14T09:41:22.007Z,99.90
2022-09-14T09:44:02.259Z,99.90
2022-09-14T09:46:34.542Z,99.90
2022-09-14T09:49:20.329Z,99.90
2022-09-14T09:51:47.636Z,99.90
2022-09-14T09:54:14.410Z,99.90
2022-09-14T09:57:04.546Z,99.90
2022-09-14T09:59:41.062Z,99.90
2022-09-14T10:02:41.256Z,99.90
2022-09-14T10:05:11.977Z,99.90
2022-09-14T10:08:08.045Z,99.90
2022-09-14T10:10:39.260Z,99.90
2022-09-14T10:13:23.524Z,99.90
2022-09-14T10:15:50.613Z,99.90
2022-09-14T10:18:19.200Z,99.90
2022-09-14T10:20:52.647Z,99.90
2022-09-14T10:23:19.521Z,99.90
2022-09-14T10:25:49.455Z,99.90
2022-09-14T10:28:22.669Z,99.90
2022-09-14T10:31:00.649Z,99.90
2022-09-14T10:33:28.745Z,99.90
2022-09-14T10:36:13.788Z,99.90
2022-09-14T10:38:58.479Z,99.90
2022-09-14T10:41:33.563Z,99.90
2022-09-14T10:44:06.263Z,99.90
2022-09-14T10:46:42.622Z,99.90
2022-09-14T10:49:27.898Z,99.90
2022-09-14T10:52:03.791Z,99.90
2022-09-14T10:55:04.741Z,99.90
2022-09-14T10:57:50.643Z,99.90
2022-09-14T11:00:41.658Z,99.90
2022-09-14T11:03:14.343Z,99.90
2022-09-14T11:05:57.527Z,99.90
2022-09-14T11:08:46.437Z,99.90
2022-09-14T11:11:36.668Z,99.90
2022-09-14T11:14:12.106Z,99.90
2022-09-14T11:17:07.234Z,99.90
2022-09-14T11:19:54.236Z,99.90
2022-09-14T11:22:42.911Z,99.90
2022-09-14T11:25:27.487Z,99.90
2022-09-14T11:28:09.475Z,99.90
2022-09-14T11:30:44.244Z,99.90
2022-09-14T11:33:20.449Z,99.90
2022-09-14T11:35:57.150Z,99.90
2022-09-14T11:38:31.112Z,99.90
2022-09-14T11:41:03.044Z,99.90
2022-09-14T11:43:40.531Z,99.90
2022-09-14T11:46:12.678Z,99.90
2022-09-14T11:49:07.116Z,99.90
2022-09-14T11:51:43.659Z,99.90
2022-09-14T11:54:17.270Z,99.90
2022-09-14T11:56:48.604Z,99.90
2022-09-14T11:59:52.987Z,99.90
2022-09-14T12:02:22.747Z,99.90
2022-09-14T12:05:04.987Z,99.90
2022-09-14T12:07:46.920Z,99.90
2022-09-14T12:10:20.644Z,99.90
2022-09-14T12:12:58.115Z,99.90
2022-09-14T12:15:25.000Z,99.90
2022-09-14T12:18:22.407Z,99.90
2022-09-14T12:21:09.449Z,99.90
2022-09-14T12:23:39.460Z,99.90
2022-09-14T12:26:06.425Z,99.90
2022-09-14T12:28:39.654Z,99.90
2022-09-14T12:31:09.520Z,99.90
2022-09-14T12:33:36.646Z,99.90
2022-09-14T12:36:21.710Z,99.90
2022-09-14T12:38:52.226Z,99.90
2022-09-14T12:41:21.924Z,99.90
2022-09-14T12:43:51.790Z,99.90
2022-09-14T12:46:21.862Z,99.90
2022-09-14T12:49:34.579Z,99.90
2022-09-14T12:52:10.998Z,99.90
2022-09-14T12:55:00.480Z,99.90
2022-09-14T12:57:42.301Z,99.90
2022-09-14T13:00:16.167Z,99.90
2022-09-14T13:02:50.626Z,99.90
2022-09-14T13:05:23.675Z,99.90
2022-09-14T13:07:51.536Z,99.20
2022-09-14T13:10:24.600Z,99.90
2022-09-14T13:12:52.328Z,98.70
2022-09-14T13:15:25.363Z,98.70
2022-09-14T13:18:04.791Z,99.00
2022-09-14T13:20:36.025Z,99.90
2022-09-14T13:23:03.413Z,99.90
2022-09-14T13:25:37.148Z,99.90
2022-09-14T13:28:07.196Z,99.90
2022-09-14T13:30:35.935Z,99.90
2022-09-14T13:33:03.779Z,99.90
2022-09-14T13:35:38.891Z,99.90
2022-09-14T13:38:09.989Z,99.90
2022-09-14T13:40:37.212Z,99.90
2022-09-14T13:43:04.697Z,99.90
2022-09-14T13:45:32.961Z,99.90
2022-09-14T13:47:59.959Z,99.90
2022-09-14T13:50:27.193Z,99.90
2022-09-14T13:53:03.481Z,99.90
2022-09-14T13:55:33.888Z,99.90
2022-09-14T13:58:09.937Z,99.90
2022-09-14T14:00:48.814Z,99.90
2022-09-14T14:03:38.064Z,99.90
2022-09-14T14:06:29.452Z,99.90
2022-09-14T14:08:58.992Z,99.90
2022-09-14T14:11:36.335Z,99.90
2022-09-14T14:14:26.571Z,99.90
2022-09-14T14:17:20.265Z,99.90
2022-09-14T14:19:48.057Z,99.60
2022-09-14T14:22:14.842Z,98.40
2022-09-14T14:25:09.094Z,97.80
2022-09-14T14:27:37.835Z,98.00
2022-09-14T14:30:14.669Z,99.90
2022-09-14T14:32:41.546Z,99.90
2022-09-14T14:35:16.743Z,99.90
2022-09-14T14:37:43.608Z,99.90
2022-09-14T14:40:13.309Z,99.90
2022-09-14T14:42:41.172Z,99.90
2022-09-14T14:45:18.891Z,99.90
2022-09-14T14:47:47.412Z,99.90
2022-09-14T14:50:17.022Z,99.90
2022-09-14T14:52:43.935Z,99.90
2022-09-14T14:55:10.795Z,99.90
2022-09-14T14:57:40.840Z,99.90
2022-09-14T15:00:17.811Z,99.90
2022-09-14T15:02:44.883Z,99.90
2022-09-14T15:05:12.833Z,99.90
2022-09-14T15:07:40.306Z,98.80
2022-09-14T15:10:09.778Z,98.60
2022-09-14T15:12:37.099Z,99.90
2022-09-14T15:15:04.556Z,99.90
2022-09-14T15:17:31.415Z,99.90
2022-09-14T15:19:58.246Z,99.90
2022-09-14T15:22:25.245Z,99.30
2022-09-14T15:24:52.063Z,99.10
2022-09-14T15:27:18.868Z,99.40
2022-09-14T15:29:45.843Z,98.80
2022-09-14T15:32:12.757Z,97.70
2022-09-14T15:34:39.567Z,96.20
2022-09-14T15:37:06.411Z,96.30
2022-09-14T15:39:33.275Z,98.10
2022-09-14T15:42:00.389Z,98.20
2022-09-14T15:44:27.288Z,98.40
2022-09-14T15:46:56.065Z,97.30
2022-09-14T15:49:24.984Z,96.40
2022-09-14T15:51:53.987Z,97.30
2022-09-14T15:54:24.936Z,96.10
2022-09-14T15:56:54.812Z,96.70
2022-09-14T15:59:22.493Z,96.50
2022-09-14T16:01:49.919Z,95.80
2022-09-14T16:04:17.568Z,96.20
2022-09-14T16:06:44.694Z,94.80
2022-09-14T16:09:13.427Z,93.20
2022-09-14T16:11:40.796Z,93.90
2022-09-14T16:14:10.007Z,93.10
2022-09-14T16:16:37.923Z,93.90
2022-09-14T16:19:13.342Z,93.90
2022-09-14T16:21:41.676Z,96.00
2022-09-14T16:24:12.235Z,96.40
2022-09-14T16:26:39.605Z,97.50
2022-09-14T16:29:11.657Z,98.00
2022-09-14T16:31:40.582Z,98.60
2022-09-14T16:34:16.782Z,99.50
2022-09-14T16:36:44.410Z,99.60
2022-09-14T16:39:16.742Z,99.90
2022-09-14T16:41:44.419Z,99.90
2022-09-14T16:44:17.856Z,99.90
2022-09-14T16:46:45.086Z,99.90
2022-09-14T16:49:12.282Z,99.90
2022-09-14T16:51:39.367Z,99.90
2022-09-14T16:54:06.966Z,99.90
2022-09-14T16:56:37.300Z,99.90
2022-09-14T16:59:05.349Z,99.90
2022-09-14T17:01:35.402Z,99.90
2022-09-14T17:04:08.265Z,99.90
2022-09-14T17:06:37.556Z,99.90
2022-09-14T17:09:10.376Z,99.90
2022-09-14T17:11:38.780Z,99.90
2022-09-14T17:14:06.432Z,99.90
2022-09-14T17:16:33.621Z,99.90
2022-09-14T17:19:03.156Z,99.90
2022-09-14T17:21:33.249Z,99.90
2022-09-14T17:24:00.999Z,99.90
2022-09-14T17:26:28.174Z,99.90
2022-09-14T17:28:56.971Z,99.90
2022-09-14T17:31:26.695Z,99.90
2022-09-14T17:33:55.375Z,99.90
2022-09-14T17:36:22.784Z,99.90
2022-09-14T17:38:50.268Z,99.90
2022-09-14T17:41:22.762Z,99.90
2022-09-14T17:43:58.616Z,99.90
2022-09-14T17:46:27.087Z,99.90
2022-09-14T17:48:54.558Z,99.90
2022-09-14T17:51:24.333Z,99.90
2022-09-14T17:53:53.634Z,99.90
2022-09-14T17:56:24.318Z,99.90
2022-09-14T17:58:59.106Z,99.90
2022-09-14T18:01:26.347Z,99.90
2022-09-14T18:04:01.891Z,99.90
2022-09-14T18:06:32.967Z,99.90
2022-09-14T18:09:03.525Z,99.90
2022-09-14T18:11:31.244Z,99.90
2022-09-14T18:13:58.656Z,99.90
2022-09-14T18:16:26.329Z,99.90
2022-09-14T18:18:53.493Z,99.90
2022-09-14T18:21:20.648Z,99.90
2022-09-14T18:23:51.764Z,99.90
2022-09-14T18:26:19.181Z,99.90
2022-09-14T18:28:46.460Z,99.90
2022-09-14T18:31:16.013Z,99.90
2022-09-14T18:33:50.320Z,99.90
2022-09-14T18:36:18.080Z,99.90
2022-09-14T18:38:45.432Z,99.90
2022-09-14T18:41:13.252Z,99.90
2022-09-14T18:43:44.657Z,99.90
2022-09-14T18:46:12.257Z,99.90
2022-09-14T18:48:40.619Z,99.90
2022-09-14T18:51:08.331Z,99.90
2022-09-14T18:53:35.869Z,99.90
2022-09-14T18:56:11.548Z,99.90
2022-09-14T18:58:45.398Z,99.90
2022-09-14T19:01:13.627Z,99.90
2022-09-14T19:03:42.427Z,99.90
2022-09-14T19:06:14.610Z,99.90
2022-09-14T19:08:42.158Z,99.90
2022-09-14T19:11:14.963Z,99.90
2022-09-14T19:13:42.175Z,99.90
2022-09-14T19:16:19.344Z,99.90
2022-09-14T19:18:48.049Z,99.90
2022-09-14T19:21:21.633Z,99.90
2022-09-14T19:24:02.817Z,99.90
2022-09-14T19:26:33.490Z,99.90
2022-09-14T19:29:05.534Z,99.90
2022-09-14T19:31:33.622Z,99.90
2022-09-14T19:34:02.061Z,99.90
2022-09-14T19:36:29.731Z,99.90
2022-09-14T19:39:01.423Z,99.90
2022-09-14T19:41:29.216Z,99.90
2022-09-14T19:43:56.081Z,99.90
2022-09-14T19:46:23.568Z,99.90
2022-09-14T19:48:51.087Z,99.90
2022-09-14T19:51:21.403Z,99.90
2022-09-14T19:53:50.910Z,99.90
2022-09-14T19:56:21.686Z,99.90
2022-09-14T19:58:50.507Z,99.90
2022-09-14T20:01:19.343Z,99.90
2022-09-14T20:03:47.883Z,99.90
2022-09-14T20:06:23.551Z,99.90
2022-09-14T20:09:12.233Z,99.90
2022-09-14T20:11:40.786Z,99.90
2022-09-14T20:14:10.850Z,99.90
2022-09-14T20:16:40.921Z,99.90
2022-09-14T20:19:16.087Z,99.90
2022-09-14T20:21:44.462Z,99.90
2022-09-14T20:24:16.967Z,99.90
2022-09-14T20:26:49.054Z,99.90
2022-09-14T20:29:17.554Z,99.90
2022-09-14T20:31:45.231Z,99.90
2022-09-14T20:34:13.094Z,99.90
2022-09-14T20:36:40.010Z,99.90
2022-09-14T20:39:07.174Z,99.90
2022-09-14T20:41:35.728Z,99.90
2022-09-14T20:44:03.863Z,99.90
2022-09-14T20:46:36.114Z,99.90
2022-09-14T20:49:06.147Z,99.90
2022-09-14T20:51:34.209Z,99.90
2022-09-14T20:54:01.259Z,99.90
2022-09-14T20:56:30.501Z,99.90
2022-09-14T20:59:01.246Z,99.90
2022-09-14T21:01:30.671Z,99.90
2022-09-14T21:04:04.144Z,99.90
2022-09-14T21:06:31.066Z,99.90
2022-09-14T21:09:00.804Z,99.90
2022-09-14T21:11:28.396Z,99.90
2022-09-14T21:13:56.668Z,99.90
2022-09-14T21:16:25.715Z,99.90
2022-09-14T21:18:55.840Z,99.90
2022-09-14T21:21:23.466Z,99.90
2022-09-14T21:23:50.607Z,99.90
2022-09-14T21:26:19.373Z,99.90
2022-09-14T21:28:46.635Z,99.90
2022-09-14T21:31:19.984Z,99.90
2022-09-14T21:33:48.036Z,99.90
2022-09-14T21:36:18.101Z,99.90
2022-09-14T21:38:54.296Z,99.90
2022-09-14T21:41:23.365Z,99.90
2022-09-14T21:43:51.179Z,99.90
2022-09-14T21:46:18.475Z,99.90
2022-09-14T21:48:46.776Z,99.90
2022-09-14T21:51:18.049Z,99.90
2022-09-14T21:53:59.763Z,99.90
2022-09-14T21:56:29.955Z,99.90
2022-09-14T21:59:01.925Z,99.90
2022-09-14T22:01:29.900Z,99.90
2022-09-14T22:03:58.041Z,99.90
2022-09-14T22:06:28.002Z,99.90
2022-09-14T22:08:55.974Z,99.90
2022-09-14T22:11:25.104Z,99.90
2022-09-14T22:13:57.325Z,99.90
2022-09-14T22:16:26.554Z,99.90
2022-09-14T22:18:56.722Z,99.90
2022-09-14T22:21:25.416Z,99.90
2022-09-14T22:23:54.455Z,99.90
2022-09-14T22:26:22.152Z,99.90
2022-09-14T22:28:50.986Z,99.90
2022-09-14T22:31:20.576Z,99.90
2022-09-14T22:33:48.309Z,99.90
2022-09-14T22:36:15.531Z,99.90
2022-09-14T22:38:42.914Z,99.90
2022-09-14T22:41:17.599Z,99.90
2022-09-14T22:43:45.090Z,99.90
2022-09-14T22:46:12.830Z,99.90
2022-09-14T22:48:42.296Z,99.90
2022-09-14T22:51:12.537Z,99.90
2022-09-14T22:53:39.688Z,99.90
2022-09-14T22:56:27.948Z,99.90
2022-09-14T22:58:56.504Z,99.90
2022-09-14T23:01:31.951Z,99.90
2022-09-14T23:04:05.204Z,99.90
2022-09-14T23:06:41.658Z,99.90
2022-09-14T23:09:11.664Z,99.90
2022-09-14T23:11:38.593Z,99.90
2022-09-14T23:14:05.434Z,99.90
2022-09-14T23:16:32.590Z,99.90
2022-09-14T23:19:03.437Z,99.90
2022-09-14T23:21:31.566Z,99.90
2022-09-14T23:24:02.243Z,99.90
2022-09-14T23:26:29.970Z,99.90
2022-09-14T23:29:07.032Z,99.90
2022-09-14T23:31:34.176Z,99.90
2022-09-14T23:34:02.627Z,99.90
2022-09-14T23:36:30.265Z,99.90
2022-09-14T23:38:57.536Z,99.90
2022-09-14T23:41:25.942Z,99.90
2022-09-14T23:43:53.084Z,99.90
2022-09-14T23:46:20.919Z,99.90
2022-09-14T23:48:48.098Z,99.90
2022-09-14T23:51:15.382Z,99.90
2022-09-14T23:53:43.219Z,99.90
2022-09-14T23:56:10.993Z,99.90
2022-09-14T23:58:38.689Z,99.90
